createdAt,value
2022-12-05T00:01:20.195Z,31.43
2022-12-05T00:03:48.655Z,38.10
2022-12-05T00:06:18.384Z,37.77
2022-12-05T00:08:46.712Z,36.00
2022-12-05T00:11:15.068Z,36.73
2022-12-05T00:13:43.661Z,35.33
2022-12-05T00:16:12.619Z,35.87
2022-12-05T00:18:40.957Z,31.73
2022-12-05T00:21:09.545Z,35.43
2022-12-05T00:23:39.110Z,36.37
2022-12-05T00:26:07.963Z,32.70
2022-12-05T00:28:36.587Z,31.13
2022-12-05T00:31:05.380Z,33.73
2022-12-05T00:33:33.761Z,35.10
2022-12-05T00:36:03.240Z,33.77
2022-12-05T00:38:31.488Z,33.60
2022-12-05T00:41:05.468Z,33.43
2022-12-05T00:43:34.190Z,32.00
2022-12-05T00:46:03.569Z,33.03
2022-12-05T00:48:31.958Z,33.17
2022-12-05T00:51:03.657Z,29.07
2022-12-05T00:53:31.871Z,32.33
2022-12-05T00:56:05.066Z,29.17
2022-12-05T00:58:33.377Z,29.73
2022-12-05T01:01:07.292Z,32.87
2022-12-05T01:03:35.757Z,28.57
2022-12-05T01:06:05.920Z,29.77
2022-12-05T01:08:35.028Z,31.07
2022-12-05T01:11:05.346Z,29.67
2022-12-05T01:13:33.788Z,31.70
2022-12-05T01:16:02.361Z,32.07
2022-12-05T01:18:31.016Z,28.73
2022-12-05T01:20:59.476Z,32.20
2022-12-05T01:23:28.846Z,28.00
2022-12-05T01:25:57.144Z,29.00
2022-12-05T01:28:26.754Z,31.90
2022-12-05T01:30:54.989Z,29.50
2022-12-05T01:33:23.244Z,29.70
2022-12-05T01:35:51.490Z,26.50
2022-12-05T01:38:19.752Z,28.87
2022-12-05T01:40:48.068Z,31.37
2022-12-05T01:43:17.436Z,34.93
2022-12-05T01:45:48.315Z,30.03
2022-12-05T01:48:20.038Z,29.57
2022-12-05T01:50:48.730Z,31.77
2022-12-05T01:53:17.448Z,31.83
2022-12-05T01:55:46.317Z,33.43
2022-12-05T01:58:14.889Z,30.10
2022-12-05T02:00:43.209Z,30.40
2022-12-05T02:03:14.410Z,30.50
2022-12-05T02:05:43.090Z,28.90
2022-12-05T02:08:12.281Z,29.30
2022-12-05T02:10:42.270Z,31.07
2022-12-05T02:13:16.122Z,29.87
2022-12-05T02:15:50.025Z,30.07
2022-12-05T02:18:28.963Z,34.50
2022-12-05T02:21:06.574Z,31.17
2022-12-05T02:23:41.067Z,29.53
2022-12-05T02:26:24.182Z,29.57
2022-12-05T02:29:03.554Z,29.87
2022-12-05T02:31:36.005Z,31.53
2022-12-05T02:34:08.527Z,29.17
2022-12-05T02:36:40.226Z,29.23
2022-12-05T02:39:13.734Z,28.37
2022-12-05T02:41:43.013Z,31.57
2022-12-05T02:44:14.869Z,27.67
2022-12-05T02:46:44.723Z,32.07
2022-12-05T02:49:15.100Z,29.43
2022-12-05T02:51:44.500Z,29.27
2022-12-05T02:54:14.482Z,28.97
2022-12-05T02:56:44.085Z,29.50
2022-12-05T02:59:12.443Z,29.83
2022-12-05T03:01:40.801Z,30.80
2022-12-05T03:04:14.201Z,29.47
2022-12-05T03:06:44.815Z,30.83
2022-12-05T03:09:15.073Z,29.40
2022-12-05T03:11:46.901Z,28.80
2022-12-05T03:14:16.031Z,29.27
2022-12-05T03:16:45.585Z,31.37
2022-12-05T03:19:17.856Z,29.00
2022-12-05T03:21:50.367Z,31.97
2022-12-05T03:24:18.955Z,31.80
2022-12-05T03:26:52.697Z,29.67
2022-12-05T03:29:27.216Z,29.53
2022-12-05T03:32:01.122Z,30.47
2022-12-05T03:34:35.159Z,29.37
2022-12-05T03:37:07.215Z,29.47
2022-12-05T03:39:37.712Z,28.20
2022-12-05T03:42:11.083Z,29.23
2022-12-05T03:44:43.632Z,27.93
2022-12-05T03:47:14.190Z,28.17
2022-12-05T03:49:46.269Z,28.80
2022-12-05T03:52:17.203Z,26.60
2022-12-05T03:54:47.268Z,26.87
2022-12-05T03:57:16.951Z,27.73
2022-12-05T03:59:48.508Z,29.47
2022-12-05T04:02:20.046Z,25.00
2022-12-05T04:04:52.806Z,24.40
2022-12-05T04:07:22.423Z,26.63
2022-12-05T04:09:53.121Z,24.93
2022-12-05T04:12:23.522Z,28.90
2022-12-05T04:14:53.601Z,25.37
2022-12-05T04:17:25.860Z,24.83
2022-12-05T04:20:15.999Z,24.23
2022-12-05T04:22:44.865Z,26.73
2022-12-05T04:25:32.371Z,25.30
2022-12-05T04:28:02.202Z,25.00
2022-12-05T04:30:34.003Z,23.67
2022-12-05T04:33:04.384Z,23.73
2022-12-05T04:35:35.656Z,24.23
2022-12-05T04:38:05.937Z,23.83
2022-12-05T04:40:36.794Z,23.90
2022-12-05T04:43:06.086Z,22.50
2022-12-05T04:45:34.810Z,24.30
2022-12-05T04:48:04.794Z,22.47
2022-12-05T04:50:35.515Z,20.83
2022-12-05T04:53:04.717Z,24.67
2022-12-05T04:55:34.262Z,24.43
2022-12-05T04:58:04.907Z,21.33
2022-12-05T05:00:33.484Z,22.40
2022-12-05T05:03:06.421Z,22.13
2022-12-05T05:05:38.979Z,24.03
2022-12-05T05:08:07.644Z,23.60
2022-12-05T05:10:39.678Z,26.23
2022-12-05T05:13:08.001Z,23.73
2022-12-05T05:15:36.329Z,22.33
2022-12-05T05:18:04.635Z,21.20
2022-12-05T05:20:33.151Z,26.77
2022-12-05T05:23:02.775Z,24.80
2022-12-05T05:25:31.115Z,20.53
2022-12-05T05:27:59.402Z,21.70
2022-12-05T05:30:27.738Z,19.93
2022-12-05T05:32:56.212Z,22.03
2022-12-05T05:35:24.672Z,22.67
2022-12-05T05:38:00.576Z,21.23
2022-12-05T05:40:30.181Z,22.13
2022-12-05T05:42:58.407Z,21.40
2022-12-05T05:45:26.707Z,21.37
2022-12-05T05:47:54.955Z,22.03
2022-12-05T05:50:23.143Z,16.83
2022-12-05T05:52:51.354Z,20.27
2022-12-05T05:55:19.638Z,21.93
2022-12-05T05:57:49.354Z,18.53
2022-12-05T06:00:18.192Z,17.67
2022-12-05T06:02:46.571Z,18.30
2022-12-05T06:05:14.899Z,16.63
2022-12-05T06:07:43.185Z,18.77
2022-12-05T06:10:11.488Z,17.53
2022-12-05T06:12:39.743Z,17.73
2022-12-05T06:15:10.209Z,16.67
2022-12-05T06:17:38.395Z,19.13
2022-12-05T06:20:07.494Z,17.27
2022-12-05T06:22:36.267Z,17.00
2022-12-05T06:25:04.732Z,17.73
2022-12-05T06:27:33.210Z,18.20
2022-12-05T06:30:01.669Z,16.13
2022-12-05T06:32:31.372Z,19.80
2022-12-05T06:34:59.673Z,15.77
2022-12-05T06:37:27.925Z,17.97
2022-12-05T06:39:56.375Z,17.73
2022-12-05T06:42:24.816Z,16.50
2022-12-05T06:44:53.059Z,16.40
2022-12-05T06:47:21.288Z,15.63
2022-12-05T06:49:50.867Z,19.10
2022-12-05T06:52:19.106Z,19.87
2022-12-05T06:54:47.443Z,20.73
2022-12-05T06:57:15.924Z,20.50
2022-12-05T06:59:44.202Z,16.70
2022-12-05T07:02:13.191Z,20.47
2022-12-05T07:04:41.491Z,17.03
2022-12-05T07:07:13.145Z,19.63
2022-12-05T07:09:48.432Z,20.43
2022-12-05T07:12:17.291Z,18.13
2022-12-05T07:14:48.192Z,19.23
2022-12-05T07:17:17.192Z,19.20
2022-12-05T07:19:45.487Z,19.77
2022-12-05T07:22:16.116Z,20.13
2022-12-05T07:24:44.838Z,18.17
2022-12-05T07:27:13.296Z,21.37
2022-12-05T07:29:41.644Z,17.87
2022-12-05T07:32:10.067Z,19.80
2022-12-05T07:34:39.483Z,18.60
2022-12-05T07:37:08.141Z,17.03
2022-12-05T07:39:37.787Z,20.60
2022-12-05T07:42:06.190Z,19.67
2022-12-05T07:44:34.870Z,19.50
2022-12-05T07:47:03.179Z,17.27
2022-12-05T07:49:31.407Z,16.83
2022-12-05T07:51:59.634Z,18.23
2022-12-05T07:54:27.940Z,16.60
2022-12-05T07:56:57.579Z,16.23
2022-12-05T07:59:25.907Z,16.77
2022-12-05T08:01:54.159Z,16.13
2022-12-05T08:04:22.392Z,16.67
2022-12-05T08:06:50.661Z,14.43
2022-12-05T08:09:19.141Z,18.30
2022-12-05T08:11:52.410Z,15.43
2022-12-05T08:14:22.643Z,16.17
2022-12-05T08:16:50.986Z,14.57
2022-12-05T08:19:19.298Z,16.53
2022-12-05T08:21:47.671Z,14.87
2022-12-05T08:24:16.198Z,14.73
2022-12-05T08:26:44.459Z,14.77
2022-12-05T08:29:13.307Z,16.03
2022-12-05T08:31:44.591Z,15.50
2022-12-05T08:34:13.908Z,16.03
2022-12-05T08:36:42.594Z,15.90
2022-12-05T08:39:14.242Z,16.20
2022-12-05T08:41:42.688Z,16.40
2022-12-05T08:44:11.045Z,16.23
2022-12-05T08:46:40.029Z,15.03
2022-12-05T08:49:09.954Z,16.17
2022-12-05T08:51:38.170Z,16.50
2022-12-05T08:54:06.854Z,18.97
2022-12-05T08:56:35.217Z,17.43
2022-12-05T08:59:05.999Z,16.20
2022-12-05T09:01:37.116Z,16.93
2022-12-05T09:04:05.945Z,18.00
2022-12-05T09:06:36.143Z,17.13
2022-12-05T09:09:05.665Z,17.50
2022-12-05T09:11:34.799Z,20.47
2022-12-05T09:14:03.094Z,18.83
2022-12-05T09:16:37.617Z,18.60
2022-12-05T09:19:07.059Z,19.00
2022-12-05T09:21:36.737Z,18.83
2022-12-05T09:24:05.103Z,20.23
2022-12-05T09:26:33.315Z,16.40
2022-12-05T09:29:03.096Z,16.90
2022-12-05T09:31:31.379Z,17.23
2022-12-05T09:33:59.662Z,18.27
2022-12-05T09:36:28.813Z,15.80
2022-12-05T09:39:04.163Z,15.60
2022-12-05T09:42:07.968Z,15.50
2022-12-05T09:44:42.931Z,18.83
2022-12-05T09:47:15.304Z,15.87
2022-12-05T09:49:49.063Z,13.53
2022-12-05T09:52:22.440Z,13.47
2022-12-05T09:54:53.410Z,14.90
2022-12-05T09:57:32.060Z,15.90
2022-12-05T10:00:02.426Z,16.73
2022-12-05T10:02:34.203Z,15.30
2022-12-05T10:05:05.242Z,18.07
2022-12-05T10:07:36.722Z,14.73
2022-12-05T10:10:20.230Z,15.40
2022-12-05T10:12:54.763Z,15.33
2022-12-05T10:15:28.280Z,15.37
2022-12-05T10:18:00.067Z,16.50
2022-12-05T10:20:30.548Z,12.70
2022-12-05T10:22:59.842Z,12.40
2022-12-05T10:25:31.366Z,13.20
2022-12-05T10:28:01.693Z,14.43
2022-12-05T10:30:31.731Z,13.57
2022-12-05T10:33:07.815Z,12.37
2022-12-05T10:35:38.658Z,12.13
2022-12-05T10:38:08.961Z,11.77
2022-12-05T10:40:40.026Z,11.00
2022-12-05T10:43:09.262Z,11.20
2022-12-05T10:45:41.964Z,13.73
2022-12-05T10:48:11.784Z,12.77
2022-12-05T10:50:42.347Z,11.37
2022-12-05T10:53:14.510Z,11.10
2022-12-05T10:56:06.411Z,12.20
2022-12-05T10:58:33.651Z,14.93
2022-12-05T11:01:09.311Z,11.93
2022-12-05T11:03:39.540Z,11.37
2022-12-05T11:06:16.711Z,12.97
2022-12-05T11:11:35.416Z,11.87
2022-12-05T11:14:05.027Z,10.90
2022-12-05T11:16:34.564Z,11.40
2022-12-05T11:19:29.315Z,10.83
2022-12-05T11:21:57.894Z,13.70
2022-12-05T11:24:28.741Z,12.37
2022-12-05T11:26:58.724Z,11.33
2022-12-05T11:29:31.553Z,11.57
2022-12-05T11:32:00.162Z,11.17
2022-12-05T11:34:30.013Z,11.47
2022-12-05T11:36:59.869Z,10.20
2022-12-05T11:39:28.243Z,10.87
2022-12-05T11:42:06.821Z,9.30
2022-12-05T11:44:41.493Z,9.63
2022-12-05T11:47:16.027Z,9.83
2022-12-05T11:49:51.898Z,9.87
2022-12-05T11:52:25.814Z,10.20
2022-12-05T11:55:06.434Z,9.30
2022-12-05T11:57:52.067Z,9.47
2022-12-05T12:00:22.893Z,10.63
2022-12-05T12:03:06.616Z,9.73
2022-12-05T12:05:39.453Z,11.23
2022-12-05T12:08:14.370Z,11.27
2022-12-05T12:10:50.326Z,9.67
2022-12-05T12:13:27.667Z,9.83
2022-12-05T12:16:06.646Z,10.20
2022-12-05T12:18:48.142Z,9.73
2022-12-05T12:21:19.258Z,10.10
2022-12-05T12:23:57.081Z,11.90
2022-12-05T12:26:31.862Z,11.37
2022-12-05T12:29:07.441Z,10.80
2022-12-05T12:31:50.707Z,12.20
2022-12-05T12:34:36.658Z,15.37
2022-12-05T12:37:08.046Z,11.30
2022-12-05T12:39:39.717Z,8.63
2022-12-05T12:42:15.983Z,9.53
2022-12-05T12:44:55.071Z,9.60
2022-12-05T12:47:27.606Z,9.27
2022-12-05T12:50:00.871Z,8.77
2022-12-05T12:52:31.896Z,9.67
2022-12-05T12:55:09.519Z,11.93
2022-12-05T12:57:47.756Z,9.13
2022-12-05T13:00:22.784Z,12.20
2022-12-05T13:02:53.405Z,10.10
2022-12-05T13:05:24.471Z,8.77
2022-12-05T13:07:55.779Z,9.50
2022-12-05T13:10:27.739Z,9.50
2022-12-05T13:12:57.088Z,8.97
2022-12-05T13:15:29.925Z,10.27
2022-12-05T13:17:58.534Z,10.17
2022-12-05T13:20:29.773Z,9.73
2022-12-05T13:23:03.126Z,9.37
2022-12-05T13:25:35.822Z,9.97
2022-12-05T13:28:05.785Z,10.10
2022-12-05T13:30:56.363Z,8.90
2022-12-05T13:33:25.537Z,9.20
2022-12-05T13:36:17.370Z,10.83
2022-12-05T13:39:03.383Z,10.60
2022-12-05T13:41:59.151Z,10.20
2022-12-05T13:44:33.235Z,9.50
2022-12-05T13:47:07.540Z,10.47
2022-12-05T13:49:38.715Z,10.00
2022-12-05T13:52:09.873Z,9.40
2022-12-05T13:54:44.221Z,9.63
2022-12-05T13:57:27.294Z,9.50
2022-12-05T14:00:04.968Z,9.60
2022-12-05T14:03:04.551Z,10.43
2022-12-05T14:05:42.455Z,9.97
2022-12-05T14:08:39.147Z,8.67
2022-12-05T14:11:12.265Z,8.53
2022-12-05T14:13:42.273Z,9.67
2022-12-05T14:16:29.030Z,7.47
2022-12-05T14:19:01.183Z,7.47
2022-12-05T14:21:38.410Z,7.93
2022-12-05T14:24:09.457Z,8.30
2022-12-05T14:26:42.987Z,8.47
2022-12-05T14:29:29.975Z,7.63
2022-12-05T14:32:05.810Z,8.63
2022-12-05T14:34:35.522Z,7.20
2022-12-05T14:37:06.625Z,7.33
2022-12-05T14:39:37.707Z,7.30
2022-12-05T14:42:07.714Z,9.30
2022-12-05T14:44:36.412Z,9.90
2022-12-05T14:47:06.684Z,11.97
2022-12-05T14:49:52.191Z,9.80
2022-12-05T14:52:24.874Z,14.80
2022-12-05T14:54:54.150Z,11.50
2022-12-05T14:57:23.005Z,9.13
2022-12-05T14:59:52.862Z,9.90
2022-12-05T15:02:23.951Z,9.57
2022-12-05T15:04:54.444Z,10.97
2022-12-05T15:07:32.494Z,13.30
2022-12-05T15:10:02.171Z,14.27
2022-12-05T15:12:46.524Z,10.70
2022-12-05T15:15:17.456Z,10.80
2022-12-05T15:17:47.972Z,11.93
2022-12-05T15:20:18.433Z,10.93
2022-12-05T15:22:48.113Z,11.20
2022-12-05T15:25:17.687Z,10.73
2022-12-05T15:27:53.269Z,12.03
2022-12-05T15:30:21.804Z,14.67
2022-12-05T15:32:51.874Z,13.40
2022-12-05T15:35:24.881Z,10.97
2022-12-05T15:37:55.431Z,10.67
2022-12-05T15:40:26.021Z,8.93
2022-12-05T15:42:55.491Z,10.03
2022-12-05T15:45:25.399Z,11.30
2022-12-05T15:47:56.723Z,9.77
2022-12-05T15:50:28.405Z,10.20
2022-12-05T15:52:59.721Z,10.40
2022-12-05T15:55:29.675Z,11.13
2022-12-05T15:58:01.547Z,9.47
2022-12-05T16:00:30.121Z,9.73
2022-12-05T16:03:01.080Z,9.63
2022-12-05T16:05:33.116Z,10.73
2022-12-05T16:08:04.319Z,9.83
2022-12-05T16:10:32.811Z,10.67
2022-12-05T16:13:04.724Z,10.70
2022-12-05T16:15:33.083Z,12.53
2022-12-05T16:18:02.696Z,11.93
2022-12-05T16:20:31.972Z,8.98
2022-12-05T16:23:02.275Z,9.90
2022-12-05T16:25:33.891Z,9.27
2022-12-05T16:28:03.898Z,8.40
2022-12-05T16:30:32.909Z,8.07
2022-12-05T16:33:02.644Z,8.17
2022-12-05T16:35:33.026Z,10.83
2022-12-05T16:38:08.836Z,14.13
2022-12-05T16:40:38.563Z,11.37
2022-12-05T16:43:07.820Z,10.63
2022-12-05T16:45:39.967Z,11.77
2022-12-05T16:48:18.805Z,9.67
2022-12-05T16:50:47.218Z,9.83
2022-12-05T16:53:18.129Z,7.60
2022-12-05T16:55:49.197Z,8.30
2022-12-05T16:58:22.987Z,8.60
2022-12-05T17:14:03.790Z,13.40
2022-12-05T17:16:42.880Z,8.50
2022-12-05T17:22:24.052Z,10.43
2022-12-05T17:34:15.785Z,7.87
2022-12-05T17:36:44.127Z,7.53
2022-12-05T17:39:12.560Z,7.60
2022-12-05T17:41:41.063Z,6.07
2022-12-05T17:44:09.613Z,6.40
2022-12-05T17:46:37.908Z,8.00
2022-12-05T17:49:06.260Z,7.20
2022-12-05T17:51:48.050Z,8.23
2022-12-05T17:54:24.051Z,6.60
2022-12-05T17:56:52.574Z,6.80
2022-12-05T17:59:20.771Z,6.63
2022-12-05T18:01:49.063Z,5.60
2022-12-05T18:07:07.051Z,6.60
2022-12-05T18:09:35.298Z,6.67
2022-12-05T18:12:03.609Z,5.63
2022-12-05T18:14:35.926Z,5.40
2022-12-05T18:17:04.573Z,6.07
2022-12-05T18:19:32.818Z,6.40
2022-12-05T18:22:01.053Z,5.40
2022-12-05T18:24:30.648Z,5.43
2022-12-05T18:26:58.973Z,4.60
2022-12-05T18:29:27.382Z,5.23
2022-12-05T18:31:55.851Z,4.73
2022-12-05T18:34:24.285Z,5.33
2022-12-05T18:36:53.358Z,6.13
2022-12-05T18:39:21.540Z,6.30
2022-12-05T18:41:51.399Z,8.17
2022-12-05T18:44:19.608Z,9.07
2022-12-05T18:46:47.819Z,7.80
2022-12-05T18:49:16.187Z,8.93
2022-12-05T18:51:44.756Z,11.80
2022-12-05T18:54:15.365Z,8.63
2022-12-05T18:56:45.885Z,8.37
2022-12-05T18:59:17.071Z,9.80
2022-12-05T19:01:45.866Z,9.67
2022-12-05T19:04:15.430Z,9.77
2022-12-05T19:06:44.724Z,10.13
2022-12-05T19:09:15.316Z,7.80
2022-12-05T19:11:47.519Z,7.23
2022-12-05T19:14:19.425Z,6.53
2022-12-05T19:16:58.016Z,6.43
2022-12-05T19:19:33.237Z,7.83
2022-12-05T19:22:02.227Z,6.97
2022-12-05T19:24:30.869Z,6.83
2022-12-05T19:27:01.572Z,5.83
2022-12-05T19:29:32.328Z,4.97
2022-12-05T19:32:01.041Z,5.93
2022-12-05T19:34:30.082Z,5.80
2022-12-05T19:36:59.667Z,4.90
2022-12-05T19:39:31.397Z,5.30
2022-12-05T19:42:01.471Z,6.80
2022-12-05T19:44:31.698Z,6.17
2022-12-05T19:47:00.935Z,4.90
2022-12-05T19:49:31.307Z,4.97
2022-12-05T19:52:01.943Z,5.40
2022-12-05T19:54:33.435Z,6.10
2022-12-05T19:57:01.789Z,6.27
2022-12-05T19:59:31.575Z,6.53
2022-12-05T20:01:59.852Z,5.33
2022-12-05T20:04:28.317Z,5.03
2022-12-05T20:06:56.638Z,4.80
2022-12-05T20:09:25.055Z,4.50
2022-12-05T20:11:55.458Z,5.10
2022-12-05T20:14:24.461Z,6.07
2022-12-05T20:16:54.709Z,5.30
2022-12-05T20:19:23.497Z,5.03
2022-12-05T20:21:51.828Z,6.10
2022-12-05T20:24:20.374Z,6.93
2022-12-05T20:26:52.977Z,5.97
2022-12-05T20:29:21.682Z,5.67
2022-12-05T20:31:56.569Z,5.40
2022-12-05T20:34:26.348Z,5.97
2022-12-05T20:36:54.668Z,5.93
2022-12-05T20:39:24.796Z,5.97
2022-12-05T20:41:53.272Z,6.10
2022-12-05T20:44:21.629Z,5.50
2022-12-05T20:46:50.517Z,5.17
2022-12-05T20:49:19.483Z,5.03
2022-12-05T20:51:49.448Z,5.50
2022-12-05T20:54:18.548Z,5.17
2022-12-05T20:56:47.618Z,6.37
2022-12-05T20:59:15.984Z,6.00
2022-12-05T21:01:44.589Z,5.60
2022-12-05T21:04:13.124Z,6.43
2022-12-05T21:06:42.820Z,5.97
2022-12-05T21:09:26.601Z,5.50
2022-12-05T21:11:55.433Z,6.70
2022-12-05T21:14:23.658Z,6.10
2022-12-05T21:16:52.839Z,6.33
2022-12-05T21:19:21.128Z,6.43
2022-12-05T21:21:49.416Z,7.70
2022-12-05T21:24:19.039Z,6.87
2022-12-05T21:26:47.736Z,6.57
2022-12-05T21:29:16.399Z,6.00
2022-12-05T21:31:45.296Z,6.23
2022-12-05T21:34:16.033Z,7.90
2022-12-05T21:36:44.858Z,7.60
2022-12-05T21:39:13.235Z,7.83
2022-12-05T21:41:43.010Z,6.90
2022-12-05T21:44:11.328Z,7.03
2022-12-05T21:46:39.569Z,6.47
2022-12-05T21:49:08.071Z,7.00
2022-12-05T21:51:36.582Z,6.40
2022-12-05T21:54:04.847Z,6.40
2022-12-05T21:56:33.109Z,7.07
2022-12-05T21:59:02.753Z,7.10
2022-12-05T22:01:31.074Z,9.67
2022-12-05T22:04:00.712Z,6.77
2022-12-05T22:06:29.926Z,7.40
2022-12-05T22:08:58.193Z,9.90
2022-12-05T22:11:26.805Z,9.13
2022-12-05T22:13:55.201Z,11.07
2022-12-05T22:16:32.203Z,7.90
2022-12-05T22:19:01.262Z,7.87
2022-12-05T22:21:29.824Z,7.33
2022-12-05T22:23:58.369Z,7.93
2022-12-05T22:26:27.560Z,8.23
2022-12-05T22:28:56.918Z,6.90
2022-12-05T22:31:29.408Z,7.47
2022-12-05T22:33:59.014Z,7.53
2022-12-05T22:36:27.703Z,8.20
2022-12-05T22:38:56.015Z,7.50
2022-12-05T22:41:25.299Z,7.63
2022-12-05T22:43:55.662Z,7.80
2022-12-05T22:46:24.894Z,8.70
2022-12-05T22:48:54.551Z,7.80
2022-12-05T22:51:23.371Z,7.70
2022-12-05T22:53:51.972Z,7.80
2022-12-05T22:56:20.962Z,7.47
2022-12-05T22:58:49.257Z,7.17
2022-12-05T23:01:18.708Z,7.37
2022-12-05T23:03:48.157Z,7.43
2022-12-05T23:06:18.712Z,7.67
2022-12-05T23:08:48.727Z,7.20
2022-12-05T23:11:17.718Z,7.20
2022-12-05T23:13:46.453Z,7.10
2022-12-05T23:16:15.817Z,6.70
2022-12-05T23:18:50.282Z,7.27
2022-12-05T23:21:21.222Z,7.90
2022-12-05T23:23:50.117Z,7.63
2022-12-05T23:26:19.174Z,7.50
2022-12-05T23:28:47.419Z,7.30
2022-12-05T23:31:15.695Z,7.50
2022-12-05T23:33:44.129Z,8.30
2022-12-05T23:36:12.795Z,8.00
2022-12-05T23:38:43.134Z,7.30
2022-12-05T23:41:13.158Z,7.97
2022-12-05T23:43:42.600Z,8.53
2022-12-05T23:46:11.290Z,9.13
2022-12-05T23:48:39.843Z,9.23
2022-12-05T23:51:09.853Z,9.87
2022-12-05T23:53:38.995Z,9.20
2022-12-05T23:56:09.891Z,9.70
2022-12-05T23:58:38.112Z,9.43
